sensor_id;sensor_type;location;lat;lon;timestamp;P1;durP1;ratioP1;P2;durP2;ratioP2
55672;SDS011;41554;45.366;20.400;2024-03-08T00:00:26;15.85;;;12.00;;
55672;SDS011;41554;45.366;20.400;2024-03-08T00:02:53;14.50;;;10.45;;
55672;SDS011;41554;45.366;20.400;2024-03-08T00:05:19;16.48;;;11.35;;
55672;SDS011;41554;45.366;20.400;2024-03-08T00:07:46;12.23;;;10.98;;
55672;SDS011;41554;45.366;20.400;2024-03-08T00:10:13;16.23;;;9.85;;
55672;SDS011;41554;45.366;20.400;2024-03-08T00:12:42;18.17;;;12.48;;
55672;SDS011;41554;45.366;20.400;2024-03-08T00:15:09;13.80;;;10.77;;
55672;SDS011;41554;45.366;20.400;2024-03-08T00:17:36;15.60;;;10.88;;
55672;SDS011;41554;45.366;20.400;2024-03-08T00:20:03;15.40;;;10.98;;
55672;SDS011;41554;45.366;20.400;2024-03-08T00:22:30;15.18;;;10.32;;
55672;SDS011;41554;45.366;20.400;2024-03-08T00:24:56;15.75;;;10.65;;
55672;SDS011;41554;45.366;20.400;2024-03-08T00:27:22;18.33;;;10.90;;
55672;SDS011;41554;45.366;20.400;2024-03-08T00:29:49;13.50;;;10.75;;
55672;SDS011;41554;45.366;20.400;2024-03-08T00:32:15;13.02;;;11.13;;
55672;SDS011;41554;45.366;20.400;2024-03-08T00:34:42;14.32;;;10.30;;
55672;SDS011;41554;45.366;20.400;2024-03-08T00:37:08;14.98;;;10.50;;
55672;SDS011;41554;45.366;20.400;2024-03-08T00:39:35;15.30;;;10.02;;
55672;SDS011;41554;45.366;20.400;2024-03-08T00:42:01;16.50;;;11.25;;
55672;SDS011;41554;45.366;20.400;2024-03-08T00:44:28;15.57;;;11.65;;
55672;SDS011;41554;45.366;20.400;2024-03-08T00:46:54;13.43;;;10.27;;
55672;SDS011;41554;45.366;20.400;2024-03-08T00:49:21;15.02;;;9.73;;
55672;SDS011;41554;45.366;20.400;2024-03-08T00:51:48;12.73;;;10.10;;
55672;SDS011;41554;45.366;20.400;2024-03-08T00:54:14;19.98;;;10.68;;
55672;SDS011;41554;45.366;20.400;2024-03-08T00:56:41;12.15;;;9.05;;
55672;SDS011;41554;45.366;20.400;2024-03-08T00:59:08;12.05;;;9.05;;
55672;SDS011;41554;45.366;20.400;2024-03-08T01:01:34;13.70;;;10.90;;
55672;SDS011;41554;45.366;20.400;2024-03-08T01:04:00;11.13;;;9.68;;
55672;SDS011;41554;45.366;20.400;2024-03-08T01:06:27;12.32;;;10.20;;
55672;SDS011;41554;45.366;20.400;2024-03-08T01:08:53;15.13;;;10.40;;
55672;SDS011;41554;45.366;20.400;2024-03-08T01:11:19;12.15;;;7.85;;
55672;SDS011;41554;45.366;20.400;2024-03-08T01:13:45;16.02;;;11.32;;
55672;SDS011;41554;45.366;20.400;2024-03-08T01:16:13;14.32;;;11.13;;
55672;SDS011;41554;45.366;20.400;2024-03-08T01:18:39;14.57;;;9.80;;
55672;SDS011;41554;45.366;20.400;2024-03-08T01:21:05;12.38;;;10.32;;
55672;SDS011;41554;45.366;20.400;2024-03-08T01:23:31;14.77;;;9.90;;
55672;SDS011;41554;45.366;20.400;2024-03-08T01:25:59;14.70;;;10.63;;
55672;SDS011;41554;45.366;20.400;2024-03-08T01:28:27;12.70;;;9.25;;
55672;SDS011;41554;45.366;20.400;2024-03-08T01:30:54;15.80;;;9.02;;
55672;SDS011;41554;45.366;20.400;2024-03-08T01:33:24;12.10;;;8.82;;
55672;SDS011;41554;45.366;20.400;2024-03-08T01:35:51;12.55;;;8.80;;
55672;SDS011;41554;45.366;20.400;2024-03-08T01:38:17;14.52;;;10.98;;
55672;SDS011;41554;45.366;20.400;2024-03-08T01:40:44;18.35;;;12.60;;
55672;SDS011;41554;45.366;20.400;2024-03-08T01:45:42;18.10;;;12.10;;
55672;SDS011;41554;45.366;20.400;2024-03-08T01:48:09;14.50;;;10.50;;
55672;SDS011;41554;45.366;20.400;2024-03-08T01:50:35;16.67;;;10.32;;
55672;SDS011;41554;45.366;20.400;2024-03-08T01:53:02;14.70;;;11.60;;
55672;SDS011;41554;45.366;20.400;2024-03-08T01:55:29;13.80;;;9.60;;
55672;SDS011;41554;45.366;20.400;2024-03-08T01:57:55;14.13;;;10.50;;
55672;SDS011;41554;45.366;20.400;2024-03-08T02:00:21;17.90;;;11.90;;
55672;SDS011;41554;45.366;20.400;2024-03-08T02:02:50;14.35;;;10.10;;
55672;SDS011;41554;45.366;20.400;2024-03-08T02:05:17;12.15;;;9.52;;
55672;SDS011;41554;45.366;20.400;2024-03-08T02:07:43;12.30;;;8.20;;
55672;SDS011;41554;45.366;20.400;2024-03-08T02:10:09;13.63;;;9.77;;
55672;SDS011;41554;45.366;20.400;2024-03-08T02:12:38;12.70;;;8.80;;
55672;SDS011;41554;45.366;20.400;2024-03-08T02:15:04;16.90;;;10.18;;
55672;SDS011;41554;45.366;20.400;2024-03-08T02:17:34;11.18;;;9.07;;
55672;SDS011;41554;45.366;20.400;2024-03-08T02:20:00;16.88;;;10.82;;
55672;SDS011;41554;45.366;20.400;2024-03-08T02:22:27;16.10;;;10.90;;
55672;SDS011;41554;45.366;20.400;2024-03-08T02:24:55;16.35;;;12.02;;
55672;SDS011;41554;45.366;20.400;2024-03-08T02:27:24;15.27;;;10.80;;
55672;SDS011;41554;45.366;20.400;2024-03-08T02:29:52;14.65;;;12.13;;
55672;SDS011;41554;45.366;20.400;2024-03-08T02:32:21;21.63;;;13.52;;
55672;SDS011;41554;45.366;20.400;2024-03-08T02:34:48;18.60;;;10.50;;
55672;SDS011;41554;45.366;20.400;2024-03-08T02:37:14;14.75;;;10.20;;
55672;SDS011;41554;45.366;20.400;2024-03-08T02:39:41;22.15;;;13.05;;
55672;SDS011;41554;45.366;20.400;2024-03-08T02:42:07;13.10;;;9.38;;
55672;SDS011;41554;45.366;20.400;2024-03-08T02:44:33;20.88;;;14.25;;
55672;SDS011;41554;45.366;20.400;2024-03-08T02:47:00;20.35;;;11.82;;
55672;SDS011;41554;45.366;20.400;2024-03-08T02:49:26;15.90;;;11.60;;
55672;SDS011;41554;45.366;20.400;2024-03-08T02:51:53;19.98;;;12.98;;
55672;SDS011;41554;45.366;20.400;2024-03-08T02:54:19;16.25;;;11.05;;
55672;SDS011;41554;45.366;20.400;2024-03-08T02:56:46;16.67;;;12.88;;
55672;SDS011;41554;45.366;20.400;2024-03-08T02:59:12;23.20;;;12.27;;
55672;SDS011;41554;45.366;20.400;2024-03-08T03:01:40;15.05;;;10.93;;
55672;SDS011;41554;45.366;20.400;2024-03-08T03:04:06;19.13;;;12.73;;
55672;SDS011;41554;45.366;20.400;2024-03-08T03:06:32;20.65;;;13.88;;
55672;SDS011;41554;45.366;20.400;2024-03-08T06:12:03;23.88;;;14.10;;
55672;SDS011;41554;45.366;20.400;2024-03-08T06:14:29;18.83;;;14.95;;
55672;SDS011;41554;45.366;20.400;2024-03-08T06:16:56;25.63;;;16.65;;
55672;SDS011;41554;45.366;20.400;2024-03-08T06:19:22;19.67;;;14.18;;
55672;SDS011;41554;45.366;20.400;2024-03-08T06:21:48;32.75;;;18.17;;
55672;SDS011;41554;45.366;20.400;2024-03-08T06:24:15;25.65;;;17.45;;
55672;SDS011;41554;45.366;20.400;2024-03-08T06:26:41;24.58;;;15.63;;
55672;SDS011;41554;45.366;20.400;2024-03-08T06:29:07;18.27;;;13.75;;
55672;SDS011;41554;45.366;20.400;2024-03-08T06:31:33;21.77;;;15.93;;
55672;SDS011;41554;45.366;20.400;2024-03-08T06:34:03;26.83;;;15.25;;
55672;SDS011;41554;45.366;20.400;2024-03-08T06:36:33;22.70;;;16.02;;
55672;SDS011;41554;45.366;20.400;2024-03-08T06:38:59;28.65;;;14.43;;
55672;SDS011;41554;45.366;20.400;2024-03-08T06:41:25;20.75;;;15.48;;
55672;SDS011;41554;45.366;20.400;2024-03-08T06:43:52;25.58;;;18.55;;
55672;SDS011;41554;45.366;20.400;2024-03-08T06:46:22;36.35;;;17.70;;
55672;SDS011;41554;45.366;20.400;2024-03-08T06:48:48;20.50;;;12.50;;
55672;SDS011;41554;45.366;20.400;2024-03-08T06:51:14;21.25;;;13.88;;
55672;SDS011;41554;45.366;20.400;2024-03-08T06:53:40;23.60;;;15.32;;
55672;SDS011;41554;45.366;20.400;2024-03-08T06:56:06;21.42;;;15.45;;
55672;SDS011;41554;45.366;20.400;2024-03-08T06:58:33;23.83;;;15.30;;
55672;SDS011;41554;45.366;20.400;2024-03-08T07:00:59;22.65;;;14.02;;
55672;SDS011;41554;45.366;20.400;2024-03-08T07:03:29;20.23;;;14.30;;
55672;SDS011;41554;45.366;20.400;2024-03-08T07:05:55;22.83;;;16.58;;
55672;SDS011;41554;45.366;20.400;2024-03-08T07:08:24;27.63;;;11.38;;
55672;SDS011;41554;45.366;20.400;2024-03-08T07:10:52;33.97;;;17.70;;
55672;SDS011;41554;45.366;20.400;2024-03-08T07:13:18;22.73;;;12.48;;
55672;SDS011;41554;45.366;20.400;2024-03-08T07:15:45;17.70;;;14.35;;
55672;SDS011;41554;45.366;20.400;2024-03-08T07:18:11;30.10;;;15.77;;
55672;SDS011;41554;45.366;20.400;2024-03-08T07:20:40;24.10;;;14.15;;
55672;SDS011;41554;45.366;20.400;2024-03-08T07:23:07;22.45;;;16.85;;
55672;SDS011;41554;45.366;20.400;2024-03-08T07:25:33;17.70;;;13.82;;
55672;SDS011;41554;45.366;20.400;2024-03-08T07:28:00;19.70;;;13.35;;
55672;SDS011;41554;45.366;20.400;2024-03-08T07:30:26;19.02;;;14.02;;
55672;SDS011;41554;45.366;20.400;2024-03-08T07:33:11;21.10;;;14.18;;
55672;SDS011;41554;45.366;20.400;2024-03-08T07:35:40;26.13;;;18.25;;
55672;SDS011;41554;45.366;20.400;2024-03-08T07:38:07;32.10;;;17.23;;
55672;SDS011;41554;45.366;20.400;2024-03-08T07:40:35;22.65;;;15.35;;
55672;SDS011;41554;45.366;20.400;2024-03-08T07:43:04;22.67;;;16.52;;
55672;SDS011;41554;45.366;20.400;2024-03-08T07:45:30;19.33;;;11.80;;
55672;SDS011;41554;45.366;20.400;2024-03-08T07:47:56;29.08;;;14.15;;
55672;SDS011;41554;45.366;20.400;2024-03-08T07:50:22;16.95;;;14.27;;
55672;SDS011;41554;45.366;20.400;2024-03-08T07:52:48;31.90;;;18.67;;
55672;SDS011;41554;45.366;20.400;2024-03-08T07:55:15;24.92;;;17.20;;
55672;SDS011;41554;45.366;20.400;2024-03-08T07:57:41;18.83;;;14.70;;
55672;SDS011;41554;45.366;20.400;2024-03-08T08:00:08;32.83;;;24.67;;
55672;SDS011;41554;45.366;20.400;2024-03-08T08:02:34;20.50;;;15.27;;
55672;SDS011;41554;45.366;20.400;2024-03-08T08:05:01;20.92;;;17.45;;
55672;SDS011;41554;45.366;20.400;2024-03-08T08:07:28;27.05;;;16.33;;
55672;SDS011;41554;45.366;20.400;2024-03-08T08:09:55;28.23;;;21.27;;
55672;SDS011;41554;45.366;20.400;2024-03-08T08:12:21;32.63;;;23.67;;
55672;SDS011;41554;45.366;20.400;2024-03-08T08:14:47;23.05;;;13.10;;
55672;SDS011;41554;45.366;20.400;2024-03-08T08:17:13;30.20;;;14.93;;
55672;SDS011;41554;45.366;20.400;2024-03-08T08:19:42;19.38;;;14.82;;
55672;SDS011;41554;45.366;20.400;2024-03-08T08:22:08;23.95;;;18.10;;
55672;SDS011;41554;45.366;20.400;2024-03-08T08:24:35;43.45;;;23.40;;
55672;SDS011;41554;45.366;20.400;2024-03-08T08:27:02;31.60;;;25.05;;
55672;SDS011;41554;45.366;20.400;2024-03-08T08:29:28;40.35;;;25.65;;
55672;SDS011;41554;45.366;20.400;2024-03-08T08:31:57;42.38;;;27.15;;
55672;SDS011;41554;45.366;20.400;2024-03-08T08:34:24;34.10;;;23.63;;
55672;SDS011;41554;45.366;20.400;2024-03-08T08:36:51;35.22;;;18.95;;
55672;SDS011;41554;45.366;20.400;2024-03-08T08:39:18;34.33;;;25.13;;
55672;SDS011;41554;45.366;20.400;2024-03-08T08:41:44;32.58;;;20.88;;
55672;SDS011;41554;45.366;20.400;2024-03-08T08:44:10;33.20;;;18.65;;
55672;SDS011;41554;45.366;20.400;2024-03-08T08:46:37;27.95;;;20.52;;
55672;SDS011;41554;45.366;20.400;2024-03-08T08:49:04;32.60;;;21.65;;
55672;SDS011;41554;45.366;20.400;2024-03-08T08:51:31;26.80;;;21.38;;
55672;SDS011;41554;45.366;20.400;2024-03-08T08:53:58;24.13;;;16.75;;
55672;SDS011;41554;45.366;20.400;2024-03-08T08:56:25;26.40;;;18.35;;
55672;SDS011;41554;45.366;20.400;2024-03-08T08:58:51;31.15;;;18.42;;
55672;SDS011;41554;45.366;20.400;2024-03-08T09:01:20;29.77;;;18.63;;
55672;SDS011;41554;45.366;20.400;2024-03-08T09:03:46;31.25;;;18.90;;
55672;SDS011;41554;45.366;20.400;2024-03-08T09:06:12;26.70;;;18.05;;
55672;SDS011;41554;45.366;20.400;2024-03-08T09:08:39;24.85;;;16.73;;
55672;SDS011;41554;45.366;20.400;2024-03-08T09:11:05;29.05;;;18.27;;
55672;SDS011;41554;45.366;20.400;2024-03-08T09:13:31;39.13;;;27.40;;
55672;SDS011;41554;45.366;20.400;2024-03-08T09:15:59;31.17;;;24.65;;
55672;SDS011;41554;45.366;20.400;2024-03-08T09:18:25;31.13;;;22.05;;
55672;SDS011;41554;45.366;20.400;2024-03-08T09:20:51;30.45;;;24.02;;
55672;SDS011;41554;45.366;20.400;2024-03-08T09:23:22;25.77;;;19.05;;
55672;SDS011;41554;45.366;20.400;2024-03-08T09:25:49;36.83;;;24.50;;
55672;SDS011;41554;45.366;20.400;2024-03-08T09:28:15;39.03;;;23.83;;
55672;SDS011;41554;45.366;20.400;2024-03-08T09:30:41;22.13;;;15.65;;
55672;SDS011;41554;45.366;20.400;2024-03-08T09:33:08;35.15;;;16.88;;
55672;SDS011;41554;45.366;20.400;2024-03-08T09:35:34;25.23;;;19.27;;
55672;SDS011;41554;45.366;20.400;2024-03-08T09:38:01;22.17;;;15.27;;
55672;SDS011;41554;45.366;20.400;2024-03-08T09:40:28;32.45;;;21.73;;
55672;SDS011;41554;45.366;20.400;2024-03-08T09:42:54;37.15;;;22.35;;
55672;SDS011;41554;45.366;20.400;2024-03-08T09:45:22;39.58;;;26.30;;
55672;SDS011;41554;45.366;20.400;2024-03-08T09:47:49;36.45;;;19.92;;
55672;SDS011;41554;45.366;20.400;2024-03-08T09:50:18;30.35;;;22.77;;
55672;SDS011;41554;45.366;20.400;2024-03-08T09:52:47;23.67;;;18.35;;
55672;SDS011;41554;45.366;20.400;2024-03-08T09:55:14;18.17;;;15.65;;
55672;SDS011;41554;45.366;20.400;2024-03-08T09:57:43;29.60;;;16.77;;
55672;SDS011;41554;45.366;20.400;2024-03-08T10:00:32;26.92;;;20.48;;
55672;SDS011;41554;45.366;20.400;2024-03-08T10:03:01;39.88;;;26.73;;
55672;SDS011;41554;45.366;20.400;2024-03-08T10:05:28;22.38;;;18.35;;
55672;SDS011;41554;45.366;20.400;2024-03-08T10:07:56;22.73;;;17.30;;
55672;SDS011;41554;45.366;20.400;2024-03-08T10:10:23;22.35;;;16.77;;
55672;SDS011;41554;45.366;20.400;2024-03-08T10:12:50;23.70;;;15.30;;
55672;SDS011;41554;45.366;20.400;2024-03-08T10:15:16;21.50;;;14.00;;
55672;SDS011;41554;45.366;20.400;2024-03-08T10:17:42;20.02;;;14.73;;
55672;SDS011;41554;45.366;20.400;2024-03-08T10:20:18;22.98;;;14.63;;
55672;SDS011;41554;45.366;20.400;2024-03-08T10:22:44;33.05;;;19.58;;
55672;SDS011;41554;45.366;20.400;2024-03-08T10:25:12;38.63;;;24.70;;
55672;SDS011;41554;45.366;20.400;2024-03-08T10:27:41;32.13;;;25.33;;
55672;SDS011;41554;45.366;20.400;2024-03-08T10:30:12;19.98;;;15.02;;
55672;SDS011;41554;45.366;20.400;2024-03-08T10:32:39;33.00;;;18.63;;
55672;SDS011;41554;45.366;20.400;2024-03-08T10:35:09;32.97;;;18.95;;
55672;SDS011;41554;45.366;20.400;2024-03-08T10:37:44;28.08;;;15.60;;
55672;SDS011;41554;45.366;20.400;2024-03-08T10:40:18;26.25;;;14.60;;
55672;SDS011;41554;45.366;20.400;2024-03-08T10:42:57;25.52;;;16.98;;
55672;SDS011;41554;45.366;20.400;2024-03-08T10:47:59;20.35;;;15.05;;
55672;SDS011;41554;45.366;20.400;2024-03-08T10:50:30;25.35;;;16.20;;
55672;SDS011;41554;45.366;20.400;2024-03-08T10:52:59;23.35;;;16.48;;
55672;SDS011;41554;45.366;20.400;2024-03-08T10:55:26;22.02;;;18.83;;
55672;SDS011;41554;45.366;20.400;2024-03-08T10:57:54;44.10;;;26.52;;
55672;SDS011;41554;45.366;20.400;2024-03-08T11:00:20;29.00;;;23.15;;
55672;SDS011;41554;45.366;20.400;2024-03-08T11:02:52;21.48;;;15.10;;
55672;SDS011;41554;45.366;20.400;2024-03-08T11:05:37;27.40;;;16.38;;
55672;SDS011;41554;45.366;20.400;2024-03-08T11:08:20;31.13;;;16.05;;
55672;SDS011;41554;45.366;20.400;2024-03-08T11:10:52;22.23;;;16.95;;
55672;SDS011;41554;45.366;20.400;2024-03-08T11:21:43;43.00;;;30.70;;
55672;SDS011;41554;45.366;20.400;2024-03-08T11:24:10;23.27;;;14.07;;
55672;SDS011;41554;45.366;20.400;2024-03-08T11:26:37;23.52;;;15.32;;
55672;SDS011;41554;45.366;20.400;2024-03-08T11:31:49;24.02;;;15.43;;
55672;SDS011;41554;45.366;20.400;2024-03-08T11:34:15;18.65;;;13.57;;
55672;SDS011;41554;45.366;20.400;2024-03-08T11:36:42;32.50;;;17.70;;
55672;SDS011;41554;45.366;20.400;2024-03-08T11:39:08;28.20;;;18.95;;
55672;SDS011;41554;45.366;20.400;2024-03-08T11:41:39;21.90;;;12.95;;
55672;SDS011;41554;45.366;20.400;2024-03-08T11:44:07;23.70;;;14.68;;
55672;SDS011;41554;45.366;20.400;2024-03-08T11:46:35;18.50;;;13.15;;
55672;SDS011;41554;45.366;20.400;2024-03-08T11:49:02;24.75;;;16.70;;
55672;SDS011;41554;45.366;20.400;2024-03-08T11:51:28;19.88;;;14.55;;
55672;SDS011;41554;45.366;20.400;2024-03-08T11:53:55;33.33;;;15.65;;
55672;SDS011;41554;45.366;20.400;2024-03-08T11:56:21;21.35;;;13.70;;
55672;SDS011;41554;45.366;20.400;2024-03-08T11:58:54;19.77;;;15.25;;
55672;SDS011;41554;45.366;20.400;2024-03-08T12:01:24;21.63;;;15.85;;
55672;SDS011;41554;45.366;20.400;2024-03-08T12:03:53;21.80;;;14.90;;
55672;SDS011;41554;45.366;20.400;2024-03-08T12:06:20;25.73;;;15.10;;
55672;SDS011;41554;45.366;20.400;2024-03-08T12:08:46;23.70;;;16.90;;
55672;SDS011;41554;45.366;20.400;2024-03-08T12:11:16;25.02;;;15.82;;
55672;SDS011;41554;45.366;20.400;2024-03-08T12:13:44;24.40;;;16.40;;
55672;SDS011;41554;45.366;20.400;2024-03-08T12:16:11;21.02;;;15.10;;
55672;SDS011;41554;45.366;20.400;2024-03-08T12:18:38;22.70;;;15.45;;
55672;SDS011;41554;45.366;20.400;2024-03-08T12:21:08;27.83;;;15.05;;
55672;SDS011;41554;45.366;20.400;2024-03-08T12:23:35;24.23;;;14.52;;
55672;SDS011;41554;45.366;20.400;2024-03-08T12:28:44;27.80;;;14.68;;
55672;SDS011;41554;45.366;20.400;2024-03-08T12:31:12;31.75;;;20.40;;
55672;SDS011;41554;45.366;20.400;2024-03-08T12:33:51;22.42;;;15.18;;
55672;SDS011;41554;45.366;20.400;2024-03-08T12:36:18;19.75;;;14.70;;
55672;SDS011;41554;45.366;20.400;2024-03-08T12:38:45;25.05;;;15.63;;
55672;SDS011;41554;45.366;20.400;2024-03-08T12:41:14;20.80;;;16.10;;
55672;SDS011;41554;45.366;20.400;2024-03-08T12:43:42;29.02;;;21.33;;
55672;SDS011;41554;45.366;20.400;2024-03-08T12:46:14;32.65;;;23.98;;
55672;SDS011;41554;45.366;20.400;2024-03-08T12:48:40;39.58;;;25.80;;
55672;SDS011;41554;45.366;20.400;2024-03-08T12:51:06;23.48;;;17.95;;
55672;SDS011;41554;45.366;20.400;2024-03-08T12:53:34;26.63;;;17.13;;
55672;SDS011;41554;45.366;20.400;2024-03-08T12:56:00;28.30;;;18.58;;
55672;SDS011;41554;45.366;20.400;2024-03-08T12:58:26;24.48;;;18.02;;
55672;SDS011;41554;45.366;20.400;2024-03-08T13:00:52;22.92;;;15.60;;
55672;SDS011;41554;45.366;20.400;2024-03-08T13:03:18;23.98;;;17.60;;
55672;SDS011;41554;45.366;20.400;2024-03-08T13:05:44;23.88;;;18.63;;
55672;SDS011;41554;45.366;20.400;2024-03-08T13:08:10;28.88;;;16.35;;
55672;SDS011;41554;45.366;20.400;2024-03-08T13:10:41;43.45;;;14.40;;
55672;SDS011;41554;45.366;20.400;2024-03-08T13:13:11;25.55;;;18.05;;
55672;SDS011;41554;45.366;20.400;2024-03-08T13:15:41;26.48;;;17.25;;
55672;SDS011;41554;45.366;20.400;2024-03-08T13:18:07;21.35;;;15.70;;
55672;SDS011;41554;45.366;20.400;2024-03-08T13:20:34;25.88;;;15.73;;
55672;SDS011;41554;45.366;20.400;2024-03-08T13:23:04;27.90;;;18.97;;
55672;SDS011;41554;45.366;20.400;2024-03-08T13:25:30;35.33;;;20.02;;
55672;SDS011;41554;45.366;20.400;2024-03-08T13:27:57;31.50;;;20.45;;
55672;SDS011;41554;45.366;20.400;2024-03-08T13:30:25;32.85;;;20.25;;
55672;SDS011;41554;45.366;20.400;2024-03-08T13:32:54;31.70;;;19.60;;
55672;SDS011;41554;45.366;20.400;2024-03-08T13:35:20;30.25;;;17.02;;
55672;SDS011;41554;45.366;20.400;2024-03-08T13:37:55;30.55;;;19.13;;
55672;SDS011;41554;45.366;20.400;2024-03-08T13:40:21;37.03;;;20.90;;
55672;SDS011;41554;45.366;20.400;2024-03-08T13:42:47;38.70;;;20.38;;
55672;SDS011;41554;45.366;20.400;2024-03-08T13:45:16;27.50;;;20.33;;
55672;SDS011;41554;45.366;20.400;2024-03-08T13:47:47;22.92;;;17.35;;
55672;SDS011;41554;45.366;20.400;2024-03-08T13:50:16;25.92;;;17.70;;
55672;SDS011;41554;45.366;20.400;2024-03-08T13:52:49;22.08;;;17.30;;
55672;SDS011;41554;45.366;20.400;2024-03-08T13:55:19;30.88;;;22.13;;
55672;SDS011;41554;45.366;20.400;2024-03-08T13:57:47;21.70;;;16.63;;
55672;SDS011;41554;45.366;20.400;2024-03-08T14:00:13;23.98;;;17.45;;
55672;SDS011;41554;45.366;20.400;2024-03-08T14:02:40;22.83;;;16.27;;
55672;SDS011;41554;45.366;20.400;2024-03-08T14:05:06;30.83;;;18.98;;
55672;SDS011;41554;45.366;20.400;2024-03-08T14:07:34;25.40;;;17.70;;
55672;SDS011;41554;45.366;20.400;2024-03-08T14:10:00;25.95;;;18.02;;
55672;SDS011;41554;45.366;20.400;2024-03-08T14:12:26;27.27;;;18.58;;
55672;SDS011;41554;45.366;20.400;2024-03-08T14:14:53;24.42;;;16.48;;
55672;SDS011;41554;45.366;20.400;2024-03-08T14:17:19;20.80;;;16.50;;
55672;SDS011;41554;45.366;20.400;2024-03-08T14:19:46;24.95;;;19.02;;
55672;SDS011;41554;45.366;20.400;2024-03-08T14:22:12;21.65;;;15.10;;
55672;SDS011;41554;45.366;20.400;2024-03-08T14:24:42;24.02;;;17.33;;
55672;SDS011;41554;45.366;20.400;2024-03-08T14:27:09;47.45;;;18.92;;
55672;SDS011;41554;45.366;20.400;2024-03-08T14:29:37;30.92;;;18.48;;
55672;SDS011;41554;45.366;20.400;2024-03-08T14:32:04;22.75;;;14.95;;
55672;SDS011;41554;45.366;20.400;2024-03-08T14:34:31;22.63;;;17.02;;
55672;SDS011;41554;45.366;20.400;2024-03-08T14:36:59;22.35;;;17.95;;
55672;SDS011;41554;45.366;20.400;2024-03-08T14:39:25;35.35;;;18.75;;
55672;SDS011;41554;45.366;20.400;2024-03-08T14:41:54;28.33;;;16.85;;
55672;SDS011;41554;45.366;20.400;2024-03-08T14:44:21;20.92;;;15.10;;
55672;SDS011;41554;45.366;20.400;2024-03-08T14:46:51;26.80;;;15.77;;
55672;SDS011;41554;45.366;20.400;2024-03-08T14:49:17;33.78;;;19.00;;
55672;SDS011;41554;45.366;20.400;2024-03-08T14:51:44;26.63;;;19.35;;
55672;SDS011;41554;45.366;20.400;2024-03-08T14:54:10;29.10;;;18.00;;
55672;SDS011;41554;45.366;20.400;2024-03-08T14:56:38;21.48;;;15.32;;
55672;SDS011;41554;45.366;20.400;2024-03-08T14:59:06;24.70;;;15.60;;
55672;SDS011;41554;45.366;20.400;2024-03-08T15:01:33;19.65;;;13.90;;
55672;SDS011;41554;45.366;20.400;2024-03-08T15:04:04;22.63;;;15.20;;
55672;SDS011;41554;45.366;20.400;2024-03-08T15:06:36;18.70;;;11.88;;
55672;SDS011;41554;45.366;20.400;2024-03-08T15:09:03;17.48;;;11.30;;
55672;SDS011;41554;45.366;20.400;2024-03-08T15:11:37;21.52;;;13.93;;
55672;SDS011;41554;45.366;20.400;2024-03-08T15:14:05;23.05;;;15.07;;
55672;SDS011;41554;45.366;20.400;2024-03-08T15:16:36;25.48;;;15.05;;
55672;SDS011;41554;45.366;20.400;2024-03-08T15:19:05;20.17;;;16.15;;
55672;SDS011;41554;45.366;20.400;2024-03-08T15:21:31;16.80;;;14.15;;
55672;SDS011;41554;45.366;20.400;2024-03-08T15:23:57;21.42;;;15.07;;
55672;SDS011;41554;45.366;20.400;2024-03-08T15:26:23;23.48;;;14.57;;
55672;SDS011;41554;45.366;20.400;2024-03-08T15:28:51;19.63;;;13.63;;
55672;SDS011;41554;45.366;20.400;2024-03-08T15:31:19;24.08;;;13.82;;
55672;SDS011;41554;45.366;20.400;2024-03-08T15:33:46;22.35;;;13.23;;
55672;SDS011;41554;45.366;20.400;2024-03-08T15:36:17;18.73;;;13.85;;
55672;SDS011;41554;45.366;20.400;2024-03-08T15:38:46;18.02;;;13.07;;
55672;SDS011;41554;45.366;20.400;2024-03-08T15:41:13;20.92;;;12.63;;
55672;SDS011;41554;45.366;20.400;2024-03-08T15:43:39;22.35;;;12.77;;
55672;SDS011;41554;45.366;20.400;2024-03-08T15:46:06;27.23;;;14.82;;
55672;SDS011;41554;45.366;20.400;2024-03-08T15:48:33;23.10;;;13.07;;
55672;SDS011;41554;45.366;20.400;2024-03-08T15:51:05;18.58;;;13.30;;
55672;SDS011;41554;45.366;20.400;2024-03-08T15:53:32;18.08;;;13.77;;
55672;SDS011;41554;45.366;20.400;2024-03-08T15:56:00;20.40;;;15.85;;
55672;SDS011;41554;45.366;20.400;2024-03-08T15:58:28;25.90;;;15.82;;
55672;SDS011;41554;45.366;20.400;2024-03-08T16:00:57;16.60;;;13.13;;
55672;SDS011;41554;45.366;20.400;2024-03-08T16:03:29;18.55;;;14.27;;
55672;SDS011;41554;45.366;20.400;2024-03-08T16:05:55;32.33;;;21.45;;
55672;SDS011;41554;45.366;20.400;2024-03-08T16:08:22;29.58;;;17.80;;
55672;SDS011;41554;45.366;20.400;2024-03-08T16:10:52;26.75;;;14.88;;
55672;SDS011;41554;45.366;20.400;2024-03-08T16:13:23;30.08;;;13.75;;
55672;SDS011;41554;45.366;20.400;2024-03-08T16:15:50;23.85;;;14.50;;
55672;SDS011;41554;45.366;20.400;2024-03-08T16:18:17;19.58;;;14.80;;
55672;SDS011;41554;45.366;20.400;2024-03-08T16:20:49;21.35;;;14.68;;
55672;SDS011;41554;45.366;20.400;2024-03-08T16:23:16;42.55;;;17.20;;
55672;SDS011;41554;45.366;20.400;2024-03-08T16:25:42;26.63;;;18.33;;
55672;SDS011;41554;45.366;20.400;2024-03-08T16:28:09;23.42;;;14.40;;
55672;SDS011;41554;45.366;20.400;2024-03-08T16:30:42;23.50;;;13.48;;
55672;SDS011;41554;45.366;20.400;2024-03-08T16:33:13;30.75;;;16.23;;
55672;SDS011;41554;45.366;20.400;2024-03-08T16:35:39;52.58;;;18.95;;
55672;SDS011;41554;45.366;20.400;2024-03-08T16:38:09;25.00;;;13.27;;
55672;SDS011;41554;45.366;20.400;2024-03-08T16:40:39;33.58;;;17.85;;
55672;SDS011;41554;45.366;20.400;2024-03-08T16:43:06;26.17;;;14.27;;
55672;SDS011;41554;45.366;20.400;2024-03-08T16:48:02;17.88;;;14.02;;
55672;SDS011;41554;45.366;20.400;2024-03-08T16:50:28;38.97;;;14.55;;
55672;SDS011;41554;45.366;20.400;2024-03-08T16:52:57;21.30;;;14.23;;
55672;SDS011;41554;45.366;20.400;2024-03-08T16:55:23;18.90;;;13.73;;
55672;SDS011;41554;45.366;20.400;2024-03-08T16:57:49;29.80;;;13.85;;
55672;SDS011;41554;45.366;20.400;2024-03-08T17:00:20;25.45;;;11.90;;
55672;SDS011;41554;45.366;20.400;2024-03-08T17:02:56;33.20;;;14.05;;
55672;SDS011;41554;45.366;20.400;2024-03-08T17:05:23;16.13;;;11.98;;
55672;SDS011;41554;45.366;20.400;2024-03-08T17:07:53;27.35;;;14.23;;
55672;SDS011;41554;45.366;20.400;2024-03-08T17:10:19;18.65;;;12.77;;
55672;SDS011;41554;45.366;20.400;2024-03-08T17:12:48;28.70;;;16.60;;
55672;SDS011;41554;45.366;20.400;2024-03-08T17:15:15;26.95;;;16.52;;
55672;SDS011;41554;45.366;20.400;2024-03-08T17:17:54;35.05;;;18.48;;
55672;SDS011;41554;45.366;20.400;2024-03-08T17:20:24;31.20;;;17.73;;
55672;SDS011;41554;45.366;20.400;2024-03-08T17:22:50;23.58;;;14.90;;
55672;SDS011;41554;45.366;20.400;2024-03-08T17:25:20;22.58;;;13.88;;
55672;SDS011;41554;45.366;20.400;2024-03-08T17:27:46;21.02;;;12.75;;
55672;SDS011;41554;45.366;20.400;2024-03-08T17:30:18;45.95;;;15.38;;
55672;SDS011;41554;45.366;20.400;2024-03-08T17:32:47;80.03;;;17.95;;
55672;SDS011;41554;45.366;20.400;2024-03-08T17:35:14;65.95;;;21.63;;